Time;durP1;ratioP1;P1;durP2;ratioP2;P2;SDS_P1;SDS_P2;PMS_P1;PMS_P2;Temp;Humidity;BMP_temperature;BMP_pressure;BME280_temperature;BME280_humidity;BME280_pressure;Samples;Min_cycle;Max_cycle;Signal;HPM_P1;HPM_P2
2023/06/02 00:00:53;;;;;;;12.40;2.75;;;15.70;84.00;;;;;;5015841;28;20071;-91
2023/06/02 00:03:19;;;;;;;12.60;3.15;;;15.70;84.40;;;;;;4999323;28;20116;-91
2023/06/02 00:05:46;;;;;;;12.30;2.70;;;15.70;84.60;;;;;;4982343;28;20030;-92
2023/06/02 00:08:12;;;;;;;12.10;3.03;;;15.70;84.60;;;;;;5014773;28;20050;-91
2023/06/02 00:10:38;;;;;;;12.98;3.13;;;15.70;84.90;;;;;;5014492;28;20061;-90
2023/06/02 00:13:06;;;;;;;12.65;2.50;;;15.70;85.00;;;;;;4998194;28;20030;-90
2023/06/02 00:15:33;;;;;;;13.48;2.72;;;15.60;85.00;;;;;;5014501;28;20085;-87
2023/06/02 00:17:58;;;;;;;12.40;2.67;;;15.60;85.00;;;;;;4983464;28;20109;-91
2023/06/02 00:20:27;;;;;;;10.70;2.38;;;15.60;85.10;;;;;;4999188;28;20069;-90
2023/06/02 00:22:54;;;;;;;11.00;2.70;;;15.60;85.20;;;;;;4999974;28;20474;-89
2023/06/02 00:25:20;;;;;;;9.15;2.20;;;15.60;85.20;;;;;;5016158;28;20102;-94
2023/06/02 00:27:45;;;;;;;14.52;3.00;;;15.50;85.20;;;;;;4998493;28;20061;-96
2023/06/02 00:30:12;;;;;;;12.45;2.45;;;15.50;85.20;;;;;;4999319;28;20037;-96
2023/06/02 00:32:38;;;;;;;13.63;3.13;;;15.50;85.20;;;;;;5008908;28;20029;-96
2023/06/02 00:35:04;;;;;;;7.65;2.47;;;15.50;85.20;;;;;;4993826;28;20034;-95
2023/06/02 00:37:29;;;;;;;8.85;2.72;;;15.50;85.10;;;;;;5003282;28;20033;-92
2023/06/02 00:39:55;;;;;;;9.50;2.72;;;15.50;85.40;;;;;;5002090;28;20116;-89
2023/06/02 00:42:21;;;;;;;12.68;2.88;;;15.50;85.40;;;;;;4980922;28;20025;-89
2023/06/02 00:44:47;;;;;;;11.63;2.53;;;15.50;85.50;;;;;;4998967;28;20037;-89
2023/06/02 00:47:13;;;;;;;10.93;2.75;;;15.50;85.60;;;;;;5000551;28;20026;-89
2023/06/02 00:49:39;;;;;;;7.72;2.08;;;15.50;85.70;;;;;;5002624;28;20026;-96
2023/06/02 00:52:05;;;;;;;14.45;3.03;;;15.40;85.60;;;;;;4985548;28;20029;-96
2023/06/02 00:54:32;;;;;;;15.35;2.72;;;15.40;85.60;;;;;;5001110;28;20472;-96
2023/06/02 00:56:57;;;;;;;11.23;2.50;;;15.40;85.40;;;;;;5017570;28;20379;-96
2023/06/02 00:59:23;;;;;;;12.77;2.95;;;15.40;85.30;;;;;;4984971;28;20030;-96
2023/06/02 01:01:50;;;;;;;10.88;2.75;;;15.40;85.30;;;;;;5017111;28;20061;-96
2023/06/02 01:04:17;;;;;;;12.48;2.45;;;15.40;85.40;;;;;;5001019;28;20089;-90
2023/06/02 01:06:44;;;;;;;10.48;3.25;;;15.30;85.40;;;;;;5016359;28;20053;-88
2023/06/02 01:09:13;;;;;;;9.55;2.28;;;15.30;85.30;;;;;;4999970;28;20026;-88
2023/06/02 01:11:39;;;;;;;10.57;2.90;;;15.30;85.40;;;;;;5001489;28;20080;-89
2023/06/02 01:14:43;;;;;;;16.52;2.95;;;15.30;85.60;;;;;;5017169;28;20448;-89
2023/06/02 01:17:09;;;;;;;16.30;3.92;;;15.30;85.70;;;;;;5016809;28;20033;-88
2023/06/02 01:19:38;;;;;;;9.38;2.85;;;15.30;86.30;;;;;;5001505;28;20033;-88
2023/06/02 01:22:05;;;;;;;13.57;3.25;;;15.30;85.90;;;;;;5018599;28;20467;-91
2023/06/02 01:24:39;;;;;;;11.93;3.17;;;15.20;85.90;;;;;;4984266;28;20077;-91
2023/06/02 01:27:09;;;;;;;11.88;3.00;;;15.20;85.90;;;;;;5016501;28;20037;-91
2023/06/02 01:29:39;;;;;;;14.15;2.85;;;15.20;85.60;;;;;;4995466;28;20056;-88
2023/06/02 01:32:25;;;;;;;12.77;2.83;;;15.20;85.50;;;;;;5030018;28;20017;-87
2023/06/02 01:35:18;;;;;;;14.63;2.90;;;15.10;85.60;;;;;;5030571;28;20018;-88
2023/06/02 01:37:49;;;;;;;15.82;3.08;;;15.10;85.50;;;;;;5018768;28;20128;-90
2023/06/02 01:40:16;;;;;;;15.40;2.92;;;15.10;85.40;;;;;;5016520;28;20033;-95
2023/06/02 01:42:42;;;;;;;13.65;3.78;;;15.10;85.30;;;;;;5016957;28;20026;-96
2023/06/02 01:45:09;;;;;;;11.30;2.70;;;15.10;85.40;;;;;;5001063;28;20022;-91
2023/06/02 01:47:35;;;;;;;9.88;2.67;;;15.00;85.30;;;;;;5016134;28;20033;-92
2023/06/02 01:50:03;;;;;;;13.70;3.20;;;15.00;85.30;;;;;;4999428;28;20030;-91
2023/06/02 01:52:28;;;;;;;10.90;2.92;;;15.00;85.40;;;;;;5015993;28;20069;-91
2023/06/02 01:54:54;;;;;;;10.18;2.60;;;15.00;85.30;;;;;;4999390;28;20441;-90
2023/06/02 01:57:20;;;;;;;9.25;2.65;;;15.00;85.20;;;;;;5016510;28;20032;-91
2023/06/02 01:59:46;;;;;;;14.38;3.17;;;15.00;85.40;;;;;;4984314;28;20149;-91
2023/06/02 02:02:12;;;;;;;8.48;2.45;;;14.90;85.40;;;;;;5000391;28;20391;-91
2023/06/02 02:04:40;;;;;;;13.15;3.45;;;14.90;85.50;;;;;;5000283;28;20030;-91
2023/06/02 02:07:08;;;;;;;11.70;3.15;;;14.90;85.50;;;;;;5000743;28;20407;-91
2023/06/02 02:09:34;;;;;;;13.60;3.03;;;14.90;85.60;;;;;;4999856;28;20513;-92
2023/06/02 02:12:01;;;;;;;7.85;2.50;;;14.80;85.60;;;;;;5022502;28;20018;-89
2023/06/02 02:14:27;;;;;;;9.63;2.78;;;14.80;85.60;;;;;;4984293;28;20049;-91
2023/06/02 02:16:54;;;;;;;9.48;2.60;;;14.80;85.70;;;;;;4983155;28;20372;-91
2023/06/02 02:19:22;;;;;;;11.90;2.90;;;14.80;85.80;;;;;;4999827;28;20030;-91
2023/06/02 02:21:48;;;;;;;12.60;3.60;;;14.80;85.70;;;;;;5015778;28;20501;-91
2023/06/02 02:24:16;;;;;;;9.93;3.13;;;14.80;85.80;;;;;;4983293;28;20030;-92
2023/06/02 02:26:43;;;;;;;14.05;3.20;;;14.70;85.80;;;;;;4983323;28;20045;-91
2023/06/02 02:29:09;;;;;;;8.65;2.42;;;14.70;85.90;;;;;;4983658;28;20483;-91
2023/06/02 02:31:35;;;;;;;14.27;3.13;;;14.70;86.10;;;;;;4999132;28;20103;-91
2023/06/02 02:34:07;;;;;;;9.55;3.28;;;14.70;86.20;;;;;;4983113;28;20025;-91
2023/06/02 02:36:32;;;;;;;12.00;3.05;;;14.70;86.30;;;;;;4982749;28;20061;-91
2023/06/02 02:38:58;;;;;;;10.77;2.47;;;14.70;86.40;;;;;;5014903;28;20467;-91
2023/06/02 02:41:24;;;;;;;11.38;2.40;;;14.70;86.40;;;;;;4982849;28;20180;-91
2023/06/02 02:43:50;;;;;;;9.93;2.75;;;14.60;86.40;;;;;;4999766;28;20122;-95
2023/06/02 02:46:16;;;;;;;11.30;2.72;;;14.60;86.40;;;;;;4999024;28;20054;-90
2023/06/02 02:48:42;;;;;;;14.93;3.22;;;14.60;86.40;;;;;;4982624;28;20057;-91
2023/06/02 02:51:07;;;;;;;10.43;2.75;;;14.60;86.70;;;;;;4982555;28;20546;-91
2023/06/02 02:53:33;;;;;;;11.38;3.08;;;14.60;86.90;;;;;;4982671;28;20423;-91
2023/06/02 02:55:59;;;;;;;9.50;2.53;;;14.60;87.00;;;;;;5015807;28;20416;-90
2023/06/02 02:58:26;;;;;;;12.98;2.47;;;14.50;87.00;;;;;;4982362;28;20026;-91
2023/06/02 03:00:52;;;;;;;11.50;2.70;;;14.50;87.00;;;;;;5016563;28;20032;-88
2023/06/02 03:03:17;;;;;;;10.88;2.53;;;14.50;87.00;;;;;;5020609;28;20046;-91
2023/06/02 03:05:45;;;;;;;8.93;2.42;;;14.50;87.20;;;;;;5015180;28;20022;-91
2023/06/02 03:08:12;;;;;;;10.38;2.60;;;14.50;87.20;;;;;;5014414;28;20026;-90
2023/06/02 03:10:39;;;;;;;6.47;2.40;;;14.40;87.20;;;;;;5015069;28;20112;-91
2023/06/02 03:13:04;;;;;;;10.35;2.17;;;14.40;87.10;;;;;;4998428;28;20136;-91
2023/06/02 03:15:30;;;;;;;11.13;2.75;;;14.40;87.20;;;;;;4998230;28;20045;-92
2023/06/02 03:17:57;;;;;;;9.88;2.40;;;14.40;87.20;;;;;;5014880;28;20022;-90
2023/06/02 03:20:25;;;;;;;9.20;2.60;;;14.40;87.20;;;;;;4981700;28;20026;-90
2023/06/02 03:22:51;;;;;;;11.18;2.70;;;14.40;87.20;;;;;;4997876;28;20022;-90
2023/06/02 03:25:20;;;;;;;8.15;2.47;;;14.40;87.40;;;;;;4997420;28;20084;-90
2023/06/02 03:27:49;;;;;;;7.68;2.03;;;14.30;87.40;;;;;;5015760;28;20032;-92
2023/06/02 03:30:16;;;;;;;9.05;2.40;;;14.30;87.50;;;;;;5014154;28;20030;-92
2023/06/02 03:32:41;;;;;;;10.13;2.70;;;14.30;87.60;;;;;;4988001;28;20026;-95
2023/06/02 03:35:08;;;;;;;10.02;2.40;;;14.30;87.60;;;;;;5015433;28;20025;-90
2023/06/02 03:37:33;;;;;;;9.82;2.38;;;14.30;87.50;;;;;;4981165;28;20064;-90
2023/06/02 03:39:59;;;;;;;13.15;3.03;;;14.30;87.50;;;;;;4981365;28;20483;-90
2023/06/02 03:42:25;;;;;;;7.38;2.13;;;14.30;87.70;;;;;;5013774;28;20417;-90
2023/06/02 03:44:50;;;;;;;15.40;2.50;;;14.30;87.80;;;;;;4997177;28;20026;-90
2023/06/02 03:47:16;;;;;;;14.30;2.78;;;14.30;88.30;;;;;;4981358;28;20398;-90
2023/06/02 03:49:42;;;;;;;12.90;2.65;;;14.20;87.60;;;;;;4997119;28;20092;-90
2023/06/02 03:52:07;;;;;;;11.65;2.40;;;14.20;87.60;;;;;;4981034;28;20479;-90
2023/06/02 03:54:33;;;;;;;9.80;2.33;;;14.20;87.70;;;;;;4980709;28;20046;-90
2023/06/02 03:56:59;;;;;;;11.02;2.47;;;14.20;87.80;;;;;;4997199;28;20352;-90
2023/06/02 03:59:25;;;;;;;10.82;2.33;;;14.20;88.00;;;;;;4981115;28;20042;-90
2023/06/02 04:01:51;;;;;;;14.02;2.63;;;14.20;88.00;;;;;;4980762;28;20045;-90
2023/06/02 04:04:16;;;;;;;10.40;2.75;;;14.20;88.10;;;;;;4980908;28;20030;-89
2023/06/02 04:06:42;;;;;;;11.43;2.60;;;14.20;88.10;;;;;;5013601;28;20475;-89
2023/06/02 04:09:14;;;;;;;10.75;2.38;;;14.20;88.40;;;;;;4998040;28;20065;-95
2023/06/02 04:11:40;;;;;;;12.10;2.47;;;14.20;88.50;;;;;;4998783;28;20034;-95
2023/06/02 04:14:13;;;;;;;8.05;2.40;;;14.20;88.70;;;;;;4997964;28;20018;-95
2023/06/02 04:16:38;;;;;;;11.68;2.63;;;14.10;88.80;;;;;;5014558;28;20025;-95
2023/06/02 04:19:05;;;;;;;8.75;2.25;;;14.20;88.80;;;;;;5000163;28;20124;-95
2023/06/02 04:21:31;;;;;;;10.50;2.33;;;14.10;88.90;;;;;;5002209;28;20100;-95
2023/06/02 04:23:56;;;;;;;11.40;2.50;;;14.10;88.90;;;;;;5002098;28;20033;-95
2023/06/02 04:26:22;;;;;;;11.23;2.55;;;14.10;88.90;;;;;;5001476;28;20030;-88
2023/06/02 04:28:48;;;;;;;8.93;2.70;;;14.10;88.90;;;;;;5001316;28;20030;-89
2023/06/02 04:31:13;;;;;;;14.48;2.97;;;14.10;88.90;;;;;;5001141;28;20029;-89
2023/06/02 04:33:40;;;;;;;13.57;3.20;;;14.10;88.90;;;;;;5001502;28;20037;-89
2023/06/02 04:36:07;;;;;;;14.00;2.30;;;14.10;89.00;;;;;;4985098;28;20382;-89
2023/06/02 04:38:33;;;;;;;9.63;2.55;;;14.10;89.10;;;;;;5001384;28;20536;-91
2023/06/02 04:41:01;;;;;;;9.18;2.40;;;14.10;89.10;;;;;;4985126;28;20033;-94
2023/06/02 04:43:26;;;;;;;12.70;2.15;;;14.10;89.20;;;;;;4989728;28;20018;-95
2023/06/02 04:45:52;;;;;;;9.30;2.17;;;14.10;89.80;;;;;;4985318;28;20029;-96
2023/06/02 04:48:17;;;;;;;11.00;2.63;;;14.00;89.20;;;;;;4985620;28;20104;-95
2023/06/02 04:50:43;;;;;;;12.15;2.80;;;14.10;89.30;;;;;;4984943;28;20034;-95
2023/06/02 04:53:09;;;;;;;12.73;2.72;;;14.00;89.30;;;;;;5001709;28;20113;-95
2023/06/02 04:55:35;;;;;;;12.35;2.78;;;14.00;89.30;;;;;;4984849;28;20168;-95
2023/06/02 04:58:00;;;;;;;11.68;2.17;;;14.00;89.30;;;;;;4984604;28;20096;-91
2023/06/02 05:00:28;;;;;;;12.45;2.92;;;14.00;89.20;;;;;;4991699;28;20026;-91
2023/06/02 05:02:54;;;;;;;18.02;3.53;;;14.00;89.30;;;;;;4984752;28;20030;-91
2023/06/02 05:05:20;;;;;;;11.60;2.28;;;14.00;89.30;;;;;;5000034;28;20028;-90
2023/06/02 05:07:45;;;;;;;12.68;2.53;;;14.00;89.80;;;;;;4967786;28;20050;-90
2023/06/02 05:10:11;;;;;;;11.80;2.70;;;14.00;89.20;;;;;;4968030;28;20034;-91
2023/06/02 05:12:41;;;;;;;9.32;2.22;;;14.00;89.20;;;;;;4984076;28;20022;-90
2023/06/02 05:15:07;;;;;;;13.10;2.58;;;14.00;89.30;;;;;;5000384;28;20029;-95
2023/06/02 05:17:33;;;;;;;13.15;3.15;;;14.00;89.30;;;;;;4968342;28;20486;-91
2023/06/02 05:19:59;;;;;;;13.32;2.95;;;14.00;89.20;;;;;;4999496;28;20034;-90
2023/06/02 05:22:27;;;;;;;10.07;2.70;;;14.00;89.20;;;;;;4967775;28;20050;-90
2023/06/02 05:24:52;;;;;;;9.23;2.22;;;14.00;89.30;;;;;;4968227;28;20030;-91
2023/06/02 05:27:18;;;;;;;10.90;2.25;;;14.00;89.30;;;;;;5000019;28;20029;-91
2023/06/02 05:29:44;;;;;;;12.02;2.45;;;14.00;89.30;;;;;;4968472;28;20030;-90
2023/06/02 05:32:11;;;;;;;11.77;2.80;;;14.00;89.40;;;;;;4980434;28;20030;-90
2023/06/02 05:34:37;;;;;;;8.93;2.53;;;14.00;89.40;;;;;;5006489;28;20546;-91
2023/06/02 05:37:02;;;;;;;11.32;2.65;;;14.00;89.50;;;;;;4983097;28;20057;-91
2023/06/02 05:39:28;;;;;;;10.20;2.67;;;14.00;89.50;;;;;;4976711;28;20026;-90
2023/06/02 05:41:54;;;;;;;15.10;2.85;;;14.00;89.50;;;;;;4970681;28;20045;-91
2023/06/02 05:44:20;;;;;;;16.17;2.50;;;14.00;89.30;;;;;;4983463;28;20084;-91
2023/06/02 05:46:45;;;;;;;11.65;2.75;;;14.00;89.40;;;;;;5000521;28;20122;-92
2023/06/02 05:49:11;;;;;;;14.13;2.90;;;14.00;89.30;;;;;;4983766;28;20368;-91
2023/06/02 05:51:37;;;;;;;9.25;2.42;;;14.00;89.50;;;;;;4999756;28;20022;-91
2023/06/02 05:54:02;;;;;;;11.88;2.45;;;14.00;89.50;;;;;;4999155;28;20030;-91
2023/06/02 05:56:29;;;;;;;15.93;2.95;;;14.00;89.60;;;;;;4999517;28;20057;-91
2023/06/02 05:58:55;;;;;;;13.48;2.80;;;14.00;89.50;;;;;;4983115;28;20038;-91
2023/06/02 06:01:21;;;;;;;11.77;2.78;;;14.00;89.40;;;;;;4983312;28;20112;-91
2023/06/02 06:03:46;;;;;;;9.30;2.03;;;14.00;89.40;;;;;;4999243;28;20080;-91
2023/06/02 06:06:12;;;;;;;12.98;2.60;;;14.00;89.50;;;;;;5000520;28;20026;-95
2023/06/02 06:08:38;;;;;;;11.75;2.20;;;14.00;89.50;;;;;;4984610;28;20065;-96
2023/06/02 06:11:04;;;;;;;10.15;2.70;;;14.00;89.60;;;;;;5001128;28;20030;-96
2023/06/02 06:13:30;;;;;;;12.18;2.25;;;14.10;89.70;;;;;;4999982;28;20014;-95
2023/06/02 06:15:55;;;;;;;9.07;2.42;;;14.10;89.70;;;;;;4983740;28;20360;-95
2023/06/02 06:18:21;;;;;;;10.32;2.15;;;14.10;89.90;;;;;;4983888;28;20034;-95
2023/06/02 06:20:47;;;;;;;15.88;2.63;;;14.10;90.00;;;;;;5001614;28;20029;-96
2023/06/02 06:23:14;;;;;;;8.45;2.47;;;14.10;90.00;;;;;;4999192;28;20502;-94
2023/06/02 06:25:39;;;;;;;14.70;2.88;;;14.10;90.00;;;;;;4998590;28;20112;-92
2023/06/02 06:28:05;;;;;;;8.82;2.35;;;14.10;90.00;;;;;;4982020;28;20053;-92
2023/06/02 06:30:30;;;;;;;15.02;2.75;;;14.10;90.00;;;;;;4994891;28;20033;-92
2023/06/02 06:32:57;;;;;;;8.80;2.28;;;14.10;90.00;;;;;;4966689;28;20029;-91
2023/06/02 06:35:23;;;;;;;11.55;2.67;;;14.10;90.00;;;;;;5004117;28;20023;-91
2023/06/02 06:37:49;;;;;;;12.07;2.53;;;14.10;90.00;;;;;;4987845;28;20497;-91
2023/06/02 06:40:15;;;;;;;13.07;2.72;;;14.10;90.00;;;;;;4962529;28;20045;-92
2023/06/02 06:42:40;;;;;;;13.90;2.45;;;14.10;90.10;;;;;;4962426;28;20030;-91
2023/06/02 06:45:06;;;;;;;12.02;2.90;;;14.20;90.20;;;;;;4978282;28;20026;-91
2023/06/02 06:47:32;;;;;;;14.05;3.10;;;14.20;90.30;;;;;;4978634;28;20049;-89
2023/06/02 06:49:58;;;;;;;12.32;2.42;;;14.20;90.30;;;;;;4978217;28;20476;-91
2023/06/02 06:52:24;;;;;;;11.32;2.97;;;14.20;90.20;;;;;;4994687;28;20049;-92
2023/06/02 06:54:50;;;;;;;12.55;3.17;;;14.20;90.30;;;;;;4978439;28;20046;-92
2023/06/02 06:57:16;;;;;;;10.10;2.15;;;14.20;90.30;;;;;;4978857;28;20427;-92
2023/06/02 06:59:42;;;;;;;14.20;2.45;;;14.30;90.40;;;;;;4978729;28;20070;-92
2023/06/02 07:02:10;;;;;;;16.17;2.40;;;14.20;90.40;;;;;;4978709;28;20054;-92
2023/06/02 07:04:36;;;;;;;10.27;3.03;;;14.30;90.40;;;;;;4962820;28;20495;-90
2023/06/02 07:07:01;;;;;;;13.23;2.08;;;14.30;90.50;;;;;;4996062;28;20054;-91
2023/06/02 07:09:27;;;;;;;11.30;2.95;;;14.30;90.50;;;;;;4964769;28;20431;-91
2023/06/02 07:11:56;;;;;;;17.38;2.65;;;14.30;90.50;;;;;;4950209;28;20049;-92
2023/06/02 07:14:22;;;;;;;10.52;2.45;;;14.30;90.50;;;;;;4981802;28;20029;-92
2023/06/02 07:16:52;;;;;;;11.43;2.42;;;14.30;90.50;;;;;;4965604;28;20030;-90
2023/06/02 07:19:18;;;;;;;15.10;2.47;;;14.30;90.60;;;;;;4980954;28;20122;-93
2023/06/02 07:21:44;;;;;;;14.13;2.85;;;14.40;90.60;;;;;;4982047;28;20041;-93
2023/06/02 07:24:11;;;;;;;13.13;2.55;;;14.40;90.60;;;;;;4981525;28;20026;-92
2023/06/02 07:26:37;;;;;;;8.07;2.42;;;14.40;90.70;;;;;;4981968;28;20095;-93
2023/06/02 07:29:03;;;;;;;11.43;2.42;;;14.40;90.80;;;;;;5003519;28;20018;-93
2023/06/02 07:31:29;;;;;;;8.93;2.50;;;14.40;90.80;;;;;;5005636;28;20069;-92
2023/06/02 07:33:56;;;;;;;9.68;2.22;;;14.40;90.90;;;;;;4988250;28;20570;-89
2023/06/02 07:36:22;;;;;;;7.75;2.20;;;14.40;91.00;;;;;;4989556;28;20050;-93
2023/06/02 07:38:48;;;;;;;8.75;2.40;;;14.50;91.00;;;;;;4986654;28;20042;-90
2023/06/02 07:41:14;;;;;;;8.82;2.35;;;14.50;91.10;;;;;;4986219;28;20034;-92
2023/06/02 07:43:39;;;;;;;12.60;2.88;;;14.50;91.10;;;;;;4986521;28;20037;-91
2023/06/02 07:46:05;;;;;;;11.13;2.67;;;14.50;91.10;;;;;;4983707;28;20029;-92
2023/06/02 07:48:31;;;;;;;13.00;2.47;;;14.50;91.10;;;;;;4982465;28;20026;-93
2023/06/02 07:50:56;;;;;;;10.15;2.25;;;14.50;91.20;;;;;;4984971;28;20033;-92
2023/06/02 07:53:22;;;;;;;11.07;2.30;;;14.50;91.20;;;;;;4983702;28;20018;-93
2023/06/02 07:55:48;;;;;;;9.98;2.60;;;14.50;91.20;;;;;;4977945;28;20048;-92
2023/06/02 07:58:13;;;;;;;7.57;2.22;;;14.50;91.20;;;;;;4996181;28;20375;-92
2023/06/02 08:00:39;;;;;;;11.57;2.85;;;14.50;91.30;;;;;;4973939;28;20030;-92
2023/06/02 08:03:05;;;;;;;9.63;2.58;;;14.60;91.40;;;;;;4970118;28;20029;-96
2023/06/02 08:05:30;;;;;;;12.13;2.75;;;14.60;91.40;;;;;;4986919;28;20026;-94
2023/06/02 08:07:56;;;;;;;13.02;2.55;;;14.60;91.50;;;;;;5002742;28;20430;-96
2023/06/02 08:10:22;;;;;;;13.02;2.50;;;14.60;91.50;;;;;;4970175;28;20033;-91
2023/06/02 08:12:47;;;;;;;14.35;2.97;;;14.60;91.60;;;;;;4984985;28;20030;-92
2023/06/02 08:15:13;;;;;;;10.95;2.60;;;14.60;91.60;;;;;;4969613;28;20459;-93
2023/06/02 08:17:40;;;;;;;8.57;2.08;;;14.70;91.70;;;;;;5003952;28;20017;-93
2023/06/02 08:20:07;;;;;;;11.25;2.50;;;14.70;91.70;;;;;;5002490;28;20128;-92
2023/06/02 08:22:34;;;;;;;12.20;2.67;;;14.70;91.70;;;;;;4986309;28;20022;-90
2023/06/02 08:25:03;;;;;;;14.18;2.95;;;14.70;91.80;;;;;;4985566;28;20041;-92
2023/06/02 08:27:29;;;;;;;8.98;3.30;;;14.80;91.90;;;;;;5001416;28;20553;-92
2023/06/02 08:29:56;;;;;;;12.55;2.90;;;14.80;91.90;;;;;;4986405;28;20030;-96
2023/06/02 08:32:22;;;;;;;14.00;2.67;;;14.80;92.00;;;;;;5002334;28;20022;-96
2023/06/02 08:34:55;;;;;;;12.85;2.92;;;14.80;92.00;;;;;;5002100;28;20022;-93
2023/06/02 08:37:21;;;;;;;13.88;2.50;;;14.80;92.00;;;;;;4971588;28;20025;-92
2023/06/02 08:39:48;;;;;;;10.43;2.53;;;14.90;92.10;;;;;;5001771;28;20018;-92
2023/06/02 08:42:15;;;;;;;14.50;2.75;;;14.90;92.10;;;;;;5002416;28;20112;-92
2023/06/02 08:44:42;;;;;;;11.38;2.60;;;14.90;92.10;;;;;;4990247;28;20080;-93
2023/06/02 08:47:11;;;;;;;15.88;2.90;;;14.90;92.10;;;;;;4996054;28;20121;-92
2023/06/02 08:49:46;;;;;;;10.55;2.47;;;15.00;92.10;;;;;;5008240;28;20090;-92
2023/06/02 08:52:34;;;;;;;12.77;2.45;;;15.00;92.20;;;;;;4985925;28;20471;-91
2023/06/02 08:55:03;;;;;;;12.82;2.83;;;15.00;92.30;;;;;;4986418;28;20399;-92
2023/06/02 08:57:29;;;;;;;12.13;2.55;;;15.10;92.30;;;;;;4997394;28;20072;-93
2023/06/02 08:59:56;;;;;;;9.55;2.85;;;15.10;92.30;;;;;;4966206;28;20467;-93
2023/06/02 09:02:22;;;;;;;9.90;2.78;;;15.10;92.40;;;;;;4965581;28;20073;-93
2023/06/02 09:04:47;;;;;;;9.98;2.90;;;15.10;92.40;;;;;;4964097;28;20039;-92
2023/06/02 09:07:13;;;;;;;9.90;2.50;;;15.10;92.50;;;;;;4991389;28;20079;-92
2023/06/02 09:09:51;;;;;;;8.38;2.58;;;15.10;92.60;;;;;;5016126;28;20112;-87
2023/06/02 09:12:18;;;;;;;8.50;3.28;;;15.10;92.60;;;;;;5015841;28;20022;-87
2023/06/02 09:14:48;;;;;;;12.35;2.78;;;15.20;92.60;;;;;;4999861;28;20054;-88
2023/06/02 09:17:30;;;;;;;12.13;3.03;;;15.20;92.70;;;;;;5015917;28;20022;-88
2023/06/02 09:20:18;;;;;;;11.82;2.50;;;15.20;92.70;;;;;;4983718;28;20075;-88
2023/06/02 09:22:58;;;;;;;10.07;2.95;;;15.30;92.70;;;;;;5016972;28;20026;-87
2023/06/02 09:25:26;;;;;;;10.43;2.47;;;15.30;92.70;;;;;;5021204;28;20032;-90
2023/06/02 09:27:59;;;;;;;11.90;2.50;;;15.30;92.70;;;;;;5027400;28;20168;-89
2023/06/02 09:30:26;;;;;;;11.60;3.15;;;15.30;92.70;;;;;;5011464;28;20049;-91
2023/06/02 09:33:06;;;;;;;9.20;2.67;;;15.40;92.80;;;;;;5027148;28;20018;-90
2023/06/02 09:35:45;;;;;;;11.27;2.60;;;15.40;92.80;;;;;;5022884;28;20085;-88
2023/06/02 09:38:15;;;;;;;7.82;2.83;;;15.40;92.80;;;;;;5001447;28;20299;-90
2023/06/02 09:40:42;;;;;;;8.45;2.85;;;15.40;92.80;;;;;;5001387;28;20022;-91
2023/06/02 09:43:10;;;;;;;7.82;2.97;;;15.40;92.80;;;;;;5000527;28;20033;-87
2023/06/02 09:45:48;;;;;;;9.52;2.95;;;15.50;92.90;;;;;;5015483;28;20030;-87
2023/06/02 09:48:31;;;;;;;7.65;3.00;;;15.50;92.90;;;;;;5014342;28;20031;-92
2023/06/02 09:50:58;;;;;;;10.93;3.08;;;15.50;93.00;;;;;;4998619;28;20030;-92
2023/06/02 09:53:24;;;;;;;12.27;3.05;;;15.50;93.00;;;;;;4980537;28;20023;-92
2023/06/02 09:55:50;;;;;;;10.32;3.13;;;15.60;93.10;;;;;;4980360;28;20499;-90
2023/06/02 09:58:17;;;;;;;8.10;2.60;;;15.60;93.10;;;;;;4977012;28;20058;-90
2023/06/02 10:00:43;;;;;;;10.20;3.10;;;15.60;93.20;;;;;;4981001;28;20023;-91
2023/06/02 10:03:09;;;;;;;8.52;2.75;;;15.70;93.30;;;;;;4961861;28;20031;-91
2023/06/02 10:05:37;;;;;;;7.75;2.67;;;15.70;93.30;;;;;;4976944;28;20488;-90
2023/06/02 10:08:34;;;;;;;13.30;3.20;;;15.70;93.30;;;;;;4976259;28;20488;-90
2023/06/02 10:11:21;;;;;;;11.75;2.95;;;15.70;93.40;;;;;;4976550;28;20105;-88
2023/06/02 10:14:17;;;;;;;8.30;3.08;;;15.80;93.30;;;;;;4976544;28;20019;-89
2023/06/02 10:17:23;;;;;;;8.07;2.60;;;15.80;93.60;;;;;;4976858;28;20027;-92
2023/06/02 10:20:13;;;;;;;11.23;2.88;;;15.80;93.40;;;;;;4977146;28;20480;-91
2023/06/02 10:23:04;;;;;;;10.18;2.97;;;15.80;93.30;;;;;;4977123;28;20046;-90
2023/06/02 10:25:36;;;;;;;;;;;15.90;93.40;;;;;;4977320;28;20034;-90
2023/06/02 10:28:03;;;;;;;13.23;3.22;;;15.90;93.30;;;;;;4977149;28;20000;-91
2023/06/02 10:30:29;;;;;;;11.05;2.70;;;15.90;93.30;;;;;;4977445;28;20030;-91
2023/06/02 10:32:56;;;;;;;9.57;3.03;;;15.90;93.20;;;;;;4965259;28;20093;-93
2023/06/02 10:35:21;;;;;;;9.57;2.80;;;16.00;93.10;;;;;;4963781;28;20027;-93
2023/06/02 10:38:39;;;;;;;13.15;3.42;;;16.00;93.10;;;;;;4960982;28;20031;-89
2023/06/02 10:41:06;;;;;;;9.48;3.22;;;16.00;93.20;;;;;;4934103;28;20395;-89
2023/06/02 10:43:35;;;;;;;11.10;3.70;;;16.00;93.20;;;;;;4960947;28;20023;-89
2023/06/02 10:46:21;;;;;;;11.48;3.10;;;16.10;93.30;;;;;;4960684;28;20019;-88
2023/06/02 10:48:47;;;;;;;13.65;3.58;;;16.10;93.30;;;;;;4988922;28;20015;-90
2023/06/02 10:51:15;;;;;;;14.18;3.67;;;16.10;93.30;;;;;;4995613;28;20015;-91
2023/06/02 10:54:01;;;;;;;12.90;3.72;;;16.20;93.30;;;;;;4979606;28;20084;-90
2023/06/02 10:56:39;;;;;;;14.13;3.60;;;16.20;93.40;;;;;;4995184;28;20077;-89
2023/06/02 10:59:05;;;;;;;10.57;3.00;;;16.20;93.40;;;;;;4994834;28;20038;-90
2023/06/02 11:01:51;;;;;;;23.98;5.47;;;16.30;93.40;;;;;;4994876;28;20049;-90
2023/06/02 11:04:34;;;;;;;11.00;3.60;;;16.30;93.40;;;;;;4994621;28;20029;-94
2023/06/02 11:07:23;;;;;;;11.68;3.60;;;16.30;93.40;;;;;;4982378;28;20053;-94
2023/06/02 11:09:55;;;;;;;9.00;3.33;;;16.40;93.40;;;;;;4996662;28;20118;-94
2023/06/02 11:12:50;;;;;;;10.50;3.40;;;16.40;93.70;;;;;;4995840;28;20023;-93
2023/06/02 11:15:17;;;;;;;12.32;3.35;;;16.40;93.60;;;;;;4997167;28;20058;-90
2023/06/02 11:17:44;;;;;;;13.95;3.97;;;16.50;93.60;;;;;;4978246;28;20467;-90
2023/06/02 11:20:10;;;;;;;12.32;3.90;;;16.50;93.60;;;;;;4994061;28;20109;-90
2023/06/02 11:22:36;;;;;;;14.85;3.80;;;16.50;93.60;;;;;;4978082;28;20029;-91
2023/06/02 11:25:03;;;;;;;14.85;4.05;;;16.50;93.60;;;;;;4979193;28;20030;-94
2023/06/02 11:27:43;;;;;;;14.30;3.72;;;16.60;93.70;;;;;;4994240;28;20029;-94
2023/06/02 11:30:18;;;;;;;12.45;3.20;;;16.60;93.70;;;;;;4994525;28;20034;-91
2023/06/02 11:32:47;;;;;;;13.43;4.22;;;16.70;93.70;;;;;;4991884;28;20054;-90
2023/06/02 11:35:14;;;;;;;11.80;3.80;;;16.70;93.70;;;;;;4994273;28;20034;-91
2023/06/02 11:37:42;;;;;;;9.27;3.33;;;16.70;93.70;;;;;;4993964;28;20023;-89
2023/06/02 11:40:13;;;;;;;12.70;3.95;;;16.80;93.80;;;;;;4993579;28;20084;-89
2023/06/02 11:42:40;;;;;;;;;;;16.80;93.90;;;;;;4966370;28;20026;-90
2023/06/02 11:45:27;;;;;;;11.07;3.25;;;16.80;93.80;;;;;;5006007;28;19906;-90
2023/06/02 11:48:10;;;;;;;10.40;3.63;;;16.90;93.80;;;;;;5005405;28;20038;-89
2023/06/02 11:50:37;;;;;;;11.98;3.22;;;16.90;93.80;;;;;;5005135;28;20031;-91
2023/06/02 11:53:03;;;;;;;10.50;3.10;;;17.00;93.90;;;;;;5006701;28;20033;-93
2023/06/02 11:55:34;;;;;;;8.90;3.30;;;17.00;93.80;;;;;;4980278;28;20137;-92
2023/06/02 11:58:22;;;;;;;;;;;17.10;93.70;;;;;;4994626;28;20050;-92
2023/06/02 12:00:51;;;;;;;15.25;3.88;;;17.20;93.70;;;;;;4994259;28;19929;-92
2023/06/02 12:03:17;;;;;;;11.68;3.92;;;17.20;93.70;;;;;;4990977;28;20027;-90
2023/06/02 12:05:46;;;;;;;9.38;3.78;;;17.20;93.70;;;;;;4991245;28;20035;-91
2023/06/02 12:08:26;;;;;;;10.60;3.40;;;17.30;93.70;;;;;;4976859;28;20137;-91
2023/06/02 12:10:55;;;;;;;12.25;3.63;;;17.40;93.70;;;;;;4979461;28;20061;-92
2023/06/02 12:13:26;;;;;;;13.68;3.53;;;17.40;93.60;;;;;;4977684;28;20038;-91
2023/06/02 12:15:52;;;;;;;;;;;17.50;93.80;;;;;;4979231;28;20348;-92
2023/06/02 12:18:38;;;;;;;12.55;3.47;;;17.50;93.90;;;;;;4978251;28;19916;-92
2023/06/02 12:21:23;;;;;;;11.10;3.83;;;17.60;93.90;;;;;;4978459;28;20050;-91
2023/06/02 12:23:48;;;;;;;14.45;3.75;;;17.60;93.90;;;;;;4994743;28;20464;-92
2023/06/02 12:26:15;;;;;;;14.27;3.80;;;17.60;94.00;;;;;;4994677;28;20034;-92
2023/06/02 12:28:41;;;;;;;11.60;3.20;;;17.60;94.10;;;;;;4994835;28;20076;-94
2023/06/02 12:31:06;;;;;;;10.25;3.17;;;17.70;94.20;;;;;;4958023;28;20482;-94
2023/06/02 12:33:34;;;;;;;12.40;3.92;;;17.70;94.20;;;;;;4977045;28;20092;-88
2023/06/02 12:36:00;;;;;;;13.68;4.18;;;17.80;94.10;;;;;;4977490;28;20538;-90
2023/06/02 12:38:27;;;;;;;8.02;3.03;;;17.80;94.10;;;;;;4993698;28;20041;-90
2023/06/02 12:40:53;;;;;;;10.98;3.50;;;17.90;94.10;;;;;;4997946;28;20033;-91
2023/06/02 12:43:19;;;;;;;9.63;3.50;;;17.90;94.00;;;;;;4997148;28;20022;-90
2023/06/02 12:45:46;;;;;;;9.18;2.92;;;18.00;93.90;;;;;;4980972;28;20046;-90
2023/06/02 12:48:12;;;;;;;11.07;3.63;;;18.10;94.00;;;;;;4980582;28;20440;-90